Terminal Aerodrome Forecast
Issued by NWS Melbourne, FL

Home | Current Version | Previous Version | Text Only | Print | Product List | Glossary On
Versions: 1 2 3 4 5 6 7 8 9 10 11 12 13 14 15 16 17
000
FTUS42 KMLB 250535
TAFVRB
TAF
KVRB 250535Z 2506/2606 24006KT P6SM SCT035
     FM251400 28012KT P6SM FEW050
     FM252100 14010KT P6SM SKC
     FM260000 22006KT P6SM SKC=

USA.gov is the U.S. government's official web portal to all federal, state and local government web resources and services.